Time;durP1;ratioP1;P1;durP2;ratioP2;P2;SDS_P1;SDS_P2;PMS_P1;PMS_P2;Temp;Humidity;BMP_temperature;BMP_pressure;BME280_temperature;BME280_humidity;BME280_pressure;Samples;Min_cycle;Max_cycle;Signal;HPM_P1;HPM_P2
2023/05/26 00:02:07;;;;;;;6.60;2.30;;;;;;;22.03;64.37;100373.48;108645;1278;21982;-60
2023/05/26 00:04:33;;;;;;;4.60;2.30;;;;;;;22.02;64.43;100370.86;108358;1278;21979;-61
2023/05/26 00:06:59;;;;;;;6.40;2.90;;;;;;;22.01;64.52;100371.61;108442;1278;21989;-60
2023/05/26 00:09:25;;;;;;;5.90;2.60;;;;;;;21.99;64.71;100371.16;108397;1278;22635;-61
2023/05/26 00:11:51;;;;;;;4.10;2.60;;;;;;;21.99;64.71;100368.88;108371;1273;21980;-60
2023/05/26 00:14:16;;;;;;;4.90;2.50;;;;;;;21.96;64.83;100369.00;108421;1278;21979;-60
2023/05/26 00:16:43;;;;;;;5.50;2.30;;;;;;;21.94;64.92;100368.23;108463;1278;21994;-60
2023/05/26 00:19:09;;;;;;;4.80;2.70;;;;;;;21.94;65.24;100369.52;108596;1278;22042;-60
2023/05/26 00:21:35;;;;;;;4.60;2.40;;;;;;;21.94;65.18;100374.88;108464;1278;21979;-60
2023/05/26 00:24:02;;;;;;;4.00;2.30;;;;;;;21.97;65.16;100377.05;108441;1276;21990;-60
2023/05/26 00:26:28;;;;;;;4.10;2.50;;;;;;;21.98;65.24;100380.90;108401;1273;22632;-60
2023/05/26 00:28:53;;;;;;;8.00;2.50;;;;;;;21.97;65.25;100381.13;108528;1278;21977;-59
2023/05/26 00:31:19;;;;;;;5.40;3.10;;;;;;;21.96;65.34;100383.36;108483;1268;21983;-60
2023/05/26 00:33:45;;;;;;;3.80;2.40;;;;;;;21.93;65.53;100383.70;108569;1277;22164;-60
2023/05/26 00:36:10;;;;;;;4.00;2.10;;;;;;;21.90;65.46;100381.69;108553;1278;21987;-60
2023/05/26 00:38:36;;;;;;;4.10;2.50;;;;;;;21.90;65.62;100380.66;108478;1273;21980;-60
2023/05/26 00:41:02;;;;;;;6.40;2.50;;;;;;;21.90;65.86;100375.67;108451;1270;22020;-59
2023/05/26 00:43:28;;;;;;;5.90;2.60;;;;;;;21.90;65.85;100374.42;108388;1279;21989;-60
2023/05/26 00:45:54;;;;;;;4.80;2.70;;;;;;;21.89;65.66;100376.59;108414;1278;21991;-60
2023/05/26 00:48:20;;;;;;;3.50;2.50;;;;;;;21.88;65.84;100377.05;108489;1279;21979;-60
2023/05/26 00:50:46;;;;;;;6.40;2.80;;;;;;;21.86;65.68;100376.28;108441;1274;21979;-60
2023/05/26 00:53:12;;;;;;;4.10;2.50;;;;;;;21.86;65.75;100373.92;108463;1280;22023;-61
2023/05/26 00:55:37;;;;;;;5.60;2.70;;;;;;;21.86;65.75;100374.63;108480;1279;22019;-60
2023/05/26 00:58:03;;;;;;;5.90;2.50;;;;;;;21.86;65.83;100372.50;108520;1279;21994;-60
2023/05/26 01:00:29;;;;;;;4.30;2.80;;;;;;;21.87;66.23;100372.80;108427;1273;21979;-60
2023/05/26 01:02:56;;;;;;;5.80;3.10;;;;;;;21.86;66.28;100369.63;108456;1274;21978;-61
2023/05/26 01:05:22;;;;;;;5.10;2.80;;;;;;;21.82;65.95;100371.14;108444;1279;21980;-59
2023/05/26 01:07:49;;;;;;;6.70;2.90;;;;;;;21.78;66.66;100370.09;108579;1279;22781;-60
2023/05/26 01:10:14;;;;;;;4.70;3.00;;;;;;;21.76;66.26;100370.44;108475;1277;21979;-60
2023/05/26 01:12:51;;;;;;;6.20;3.30;;;;;;;21.76;66.55;100369.19;108508;1277;21983;-60
2023/05/26 01:15:23;;;;;;;5.30;2.70;;;;;;;21.77;66.45;100373.91;108537;1270;21984;-60
2023/05/26 01:18:07;;;;;;;7.30;2.90;;;;;;;21.78;66.58;100369.38;108497;1277;21985;-60
2023/05/26 01:20:40;;;;;;;5.00;3.00;;;;;;;21.78;66.38;100370.98;108477;1267;22022;-60
2023/05/26 01:23:10;;;;;;;6.90;2.80;;;;;;;21.78;66.31;100368.89;108556;1277;21978;-60
2023/05/26 01:26:21;;;;;;;6.40;3.60;;;;;;;21.77;66.21;100367.84;108494;1279;22021;-60
2023/05/26 01:28:46;;;;;;;5.10;2.40;;;;;;;21.76;66.16;100372.53;108464;1271;22002;-60
2023/05/26 01:31:12;;;;;;;4.60;2.60;;;;;;;21.76;66.11;100368.96;108504;1279;22005;-60
2023/05/26 01:33:38;;;;;;;5.50;3.20;;;;;;;21.75;66.14;100366.55;108437;1277;22011;-60
2023/05/26 01:36:04;;;;;;;5.40;3.20;;;;;;;21.72;66.04;100363.48;108474;1280;21986;-60
2023/05/26 01:38:30;;;;;;;6.20;3.20;;;;;;;21.70;66.12;100362.69;108412;1270;21971;-60
2023/05/26 01:41:05;;;;;;;4.20;3.10;;;;;;;21.66;65.81;100361.50;108528;1279;22004;-60
2023/05/26 01:43:41;;;;;;;4.90;3.10;;;;;;;21.64;65.84;100363.44;108652;1267;22052;-60
2023/05/26 01:46:26;;;;;;;5.20;2.70;;;;;;;21.60;65.63;100360.95;108451;1273;21977;-60
2023/05/26 01:48:54;;;;;;;9.40;3.30;;;;;;;21.57;65.55;100359.87;108471;1274;25262;-60
2023/05/26 01:51:20;;;;;;;10.10;3.20;;;;;;;21.54;65.66;100358.45;108433;1279;21978;-60
2023/05/26 01:53:45;;;;;;;6.80;3.40;;;;;;;21.51;65.62;100357.20;108374;1279;24335;-61
2023/05/26 01:56:11;;;;;;;8.10;3.30;;;;;;;21.47;65.59;100356.52;108519;1279;22014;-60
2023/05/26 01:58:37;;;;;;;4.60;2.80;;;;;;;21.43;65.63;100358.92;108365;1279;21980;-60
2023/05/26 02:01:03;;;;;;;7.10;3.50;;;;;;;21.38;65.75;100361.48;108507;1276;22037;-60
2023/05/26 02:03:30;;;;;;;5.40;3.20;;;;;;;21.35;65.75;100361.67;108494;1275;21991;-60
2023/05/26 02:05:56;;;;;;;6.10;3.50;;;;;;;21.32;65.71;100357.40;108541;1274;21985;-60
2023/05/26 02:08:22;;;;;;;6.50;3.10;;;;;;;21.31;65.83;100360.31;108426;1277;21979;-60
2023/05/26 02:10:48;;;;;;;5.60;3.50;;;;;;;21.30;65.73;100359.29;108442;1277;21982;-60
2023/05/26 02:13:13;;;;;;;4.80;3.10;;;;;;;21.28;65.77;100360.29;108423;1270;22006;-61
2023/05/26 02:15:39;;;;;;;6.30;3.70;;;;;;;21.25;65.87;100365.09;108469;1277;22019;-59
2023/05/26 02:18:05;;;;;;;7.70;3.80;;;;;;;21.23;65.78;100364.68;108414;1271;21993;-60
2023/05/26 02:20:31;;;;;;;5.90;4.00;;;;;;;21.23;65.92;100368.59;108494;1270;21982;-61
2023/05/26 02:22:57;;;;;;;8.50;3.70;;;;;;;21.22;65.86;100371.70;108472;1277;21982;-61
2023/05/26 02:25:22;;;;;;;7.10;3.80;;;;;;;21.23;66.11;100378.61;108432;1271;21988;-60
2023/05/26 02:27:48;;;;;;;5.90;3.10;;;;;;;21.23;66.26;100377.89;108429;1279;21988;-59
2023/05/26 02:30:13;;;;;;;7.00;3.40;;;;;;;21.23;66.39;100384.29;108396;1277;21990;-60
2023/05/26 02:32:39;;;;;;;5.30;3.30;;;;;;;21.25;66.59;100382.39;108439;1279;21985;-60
2023/05/26 02:35:06;;;;;;;10.30;3.40;;;;;;;21.28;66.74;100377.95;108449;1271;21982;-60
2023/05/26 02:37:32;;;;;;;6.60;3.40;;;;;;;21.33;66.75;100379.66;108474;1273;21990;-60
2023/05/26 02:39:57;;;;;;;7.40;4.10;;;;;;;21.35;66.93;100377.89;108496;1271;21992;-59
2023/05/26 02:42:23;;;;;;;6.10;4.20;;;;;;;21.37;66.80;100382.42;108454;1271;22161;-59
2023/05/26 02:44:49;;;;;;;5.60;3.70;;;;;;;21.38;67.21;100385.06;108501;1270;21979;-59
2023/05/26 02:47:14;;;;;;;6.40;3.60;;;;;;;21.37;67.35;100383.66;108430;1279;22021;-60
2023/05/26 02:49:40;;;;;;;7.40;3.60;;;;;;;21.39;67.25;100382.14;108589;1278;21979;-60
2023/05/26 02:52:06;;;;;;;6.70;3.70;;;;;;;21.41;67.83;100385.65;108464;1271;21970;-60
2023/05/26 02:54:32;;;;;;;7.50;4.00;;;;;;;21.39;68.23;100385.73;108476;1278;23061;-60
2023/05/26 02:56:58;;;;;;;4.80;3.40;;;;;;;21.34;69.19;100381.90;108488;1279;21989;-61
2023/05/26 02:59:24;;;;;;;7.40;3.70;;;;;;;21.29;69.24;100379.49;108488;1270;22455;-60
2023/05/26 03:01:50;;;;;;;5.00;3.30;;;;;;;21.28;69.45;100374.73;108420;1274;21995;-60
2023/05/26 03:04:15;;;;;;;7.30;3.50;;;;;;;21.31;69.84;100377.09;108579;1279;21985;-60
2023/05/26 03:06:41;;;;;;;7.20;3.90;;;;;;;21.35;69.68;100380.94;108524;1274;22023;-60
2023/05/26 03:09:08;;;;;;;6.30;3.70;;;;;;;21.43;69.95;100384.06;108444;1277;21982;-61
2023/05/26 03:11:35;;;;;;;5.40;3.40;;;;;;;21.52;69.81;100386.44;108520;1279;22183;-62
2023/05/26 03:14:00;;;;;;;9.10;3.40;;;;;;;21.60;70.27;100382.23;108485;1279;22037;-60
2023/05/26 03:16:27;;;;;;;6.00;3.30;;;;;;;21.66;70.07;100380.10;108589;1279;21978;-60
2023/05/26 03:18:53;;;;;;;5.40;3.70;;;;;;;21.71;69.84;100381.42;108611;1278;21948;-60
2023/05/26 03:21:19;;;;;;;6.00;3.20;;;;;;;21.77;69.73;100377.84;108391;1280;21992;-60
2023/05/26 03:23:45;;;;;;;7.70;3.70;;;;;;;21.84;69.60;100377.78;108631;1277;21980;-61
2023/05/26 03:26:11;;;;;;;7.30;3.60;;;;;;;21.91;69.61;100374.13;108438;1279;22039;-60
2023/05/26 03:28:37;;;;;;;7.20;3.30;;;;;;;22.00;69.58;100373.11;108430;1279;21992;-61
2023/05/26 03:31:03;;;;;;;5.40;2.90;;;;;;;22.08;69.71;100376.03;108501;1270;21983;-60
2023/05/26 03:33:31;;;;;;;5.00;3.30;;;;;;;22.13;69.72;100381.07;108486;1271;21977;-60
2023/05/26 03:35:59;;;;;;;6.30;3.20;;;;;;;22.18;69.54;100381.63;108475;1271;22267;-61
2023/05/26 03:38:26;;;;;;;5.70;3.60;;;;;;;22.23;69.74;100378.84;108459;1279;21985;-59
2023/05/26 03:40:52;;;;;;;10.80;3.60;;;;;;;22.26;69.83;100383.49;108464;1271;21978;-59
2023/05/26 03:43:18;;;;;;;7.90;3.80;;;;;;;22.31;69.76;100390.33;108417;1276;21985;-60
2023/05/26 03:45:44;;;;;;;6.00;3.90;;;;;;;22.40;69.74;100390.70;108442;1279;22033;-59
2023/05/26 03:48:12;;;;;;;5.20;3.70;;;;;;;22.50;70.62;100386.35;108479;1270;21982;-59
2023/05/26 03:50:39;;;;;;;4.50;3.20;;;;;;;22.57;70.87;100385.02;108462;1270;21987;-60
2023/05/26 03:53:05;;;;;;;9.00;4.00;;;;;;;22.65;70.51;100383.97;108469;1279;21979;-60
2023/05/26 03:55:33;;;;;;;26.70;3.80;;;;;;;22.76;70.36;100377.38;108519;1273;21981;-58
2023/05/26 03:57:59;;;;;;;8.70;3.00;;;;;;;22.89;70.52;100373.20;108531;1267;22018;-60
2023/05/26 04:00:30;;;;;;;4.70;3.30;;;;;;;23.02;70.70;100372.86;108517;1279;21981;-60
2023/05/26 04:02:55;;;;;;;9.80;3.50;;;;;;;23.17;71.41;100375.17;108483;1279;22027;-60
2023/05/26 04:05:21;;;;;;;4.80;3.30;;;;;;;23.31;71.29;100372.32;108492;1277;22023;-60
2023/05/26 04:07:47;;;;;;;5.20;3.60;;;;;;;23.47;71.27;100368.42;108505;1271;22156;-60
2023/05/26 04:10:13;;;;;;;7.10;3.50;;;;;;;23.62;71.07;100365.23;108507;1270;21982;-60
2023/05/26 04:12:39;;;;;;;6.60;3.80;;;;;;;23.78;71.42;100367.39;108513;1278;21977;-60
2023/05/26 04:15:06;;;;;;;8.20;3.60;;;;;;;23.94;71.58;100366.33;108603;1278;22026;-60
2023/05/26 04:17:31;;;;;;;7.20;3.90;;;;;;;24.08;71.19;100367.73;108474;1270;21998;-60
2023/05/26 04:19:57;;;;;;;4.40;3.20;;;;;;;24.20;71.29;100373.66;108386;1268;21973;-60
2023/05/26 04:22:24;;;;;;;5.50;3.30;;;;;;;24.35;71.45;100372.30;108451;1276;21986;-61
2023/05/26 04:24:50;;;;;;;5.70;3.50;;;;;;;24.51;71.40;100376.37;108455;1274;21985;-60
2023/05/26 04:27:16;;;;;;;5.20;3.40;;;;;;;24.67;71.37;100375.07;108401;1277;21994;-60
2023/05/26 04:29:41;;;;;;;7.40;3.60;;;;;;;24.85;71.28;100372.94;108489;1278;22448;-58
2023/05/26 04:32:08;;;;;;;7.40;4.30;;;;;;;25.03;71.29;100373.56;108534;1274;21983;-59
2023/05/26 04:34:34;;;;;;;5.60;3.40;;;;;;;25.20;70.92;100373.44;108528;1270;21985;-61
2023/05/26 04:37:04;;;;;;;5.00;3.80;;;;;;;25.31;70.32;100371.56;108479;1277;22024;-61
2023/05/26 04:39:32;;;;;;;5.60;3.90;;;;;;;25.37;69.50;100377.52;108431;1270;22022;-60
2023/05/26 04:41:58;;;;;;;4.10;3.10;;;;;;;25.41;69.11;100379.02;108531;1280;21981;-61
2023/05/26 04:44:25;;;;;;;6.60;3.20;;;;;;;25.46;68.61;100383.38;108465;1272;21991;-61
2023/05/26 04:46:52;;;;;;;7.70;3.50;;;;;;;25.51;68.80;100386.60;108458;1277;21988;-60
2023/05/26 04:49:22;;;;;;;6.90;3.50;;;;;;;25.59;68.64;100390.34;108415;1273;22016;-60
2023/05/26 04:51:52;;;;;;;6.00;3.80;;;;;;;25.66;67.98;100387.45;108576;1279;21944;-60
2023/05/26 04:54:17;;;;;;;82.80;8.10;;;;;;;25.69;67.57;100384.20;108455;1273;21981;-60
2023/05/26 04:56:43;;;;;;;166.10;12.80;;;;;;;25.72;67.46;100380.55;108437;1274;22018;-60
2023/05/26 04:59:08;;;;;;;91.40;10.10;;;;;;;25.79;67.50;100381.80;108451;1277;21980;-61
2023/05/26 05:01:35;;;;;;;25.30;5.40;;;;;;;25.87;67.03;100382.80;108404;1277;22160;-60
2023/05/26 05:04:01;;;;;;;11.30;4.70;;;;;;;25.94;66.92;100382.64;108416;1274;21993;-61
2023/05/26 05:06:26;;;;;;;6.30;3.70;;;;;;;26.02;66.49;100386.53;108462;1279;22244;-59
2023/05/26 05:08:52;;;;;;;9.10;4.10;;;;;;;26.06;66.27;100388.40;108439;1270;21982;-59
2023/05/26 05:11:18;;;;;;;7.30;3.70;;;;;;;26.04;65.52;100390.85;108499;1274;21983;-60
2023/05/26 05:13:44;;;;;;;7.90;4.30;;;;;;;25.98;65.11;100392.42;108502;1271;21982;-61
2023/05/26 05:16:10;;;;;;;5.20;3.50;;;;;;;25.95;65.33;100392.09;108445;1273;22000;-60
2023/05/26 05:18:36;;;;;;;4.60;3.40;;;;;;;25.98;65.71;100395.45;108406;1279;22067;-61
2023/05/26 05:21:01;;;;;;;6.70;4.00;;;;;;;26.05;65.74;100399.05;108546;1274;22447;-61
2023/05/26 05:23:34;;;;;;;4.50;3.50;;;;;;;26.08;65.22;100397.05;108475;1277;21986;-60
2023/05/26 05:26:01;;;;;;;5.70;4.00;;;;;;;26.10;65.32;100397.96;108476;1274;22058;-61
2023/05/26 05:28:27;;;;;;;6.60;4.10;;;;;;;26.18;65.39;100400.79;108548;1280;22053;-60
2023/05/26 05:30:52;;;;;;;7.80;3.90;;;;;;;26.31;66.21;100401.08;108425;1270;21982;-60
2023/05/26 05:33:18;;;;;;;7.00;3.70;;;;;;;26.53;67.01;100400.40;108429;1270;21982;-61
2023/05/26 05:35:45;;;;;;;5.40;3.80;;;;;;;26.81;67.21;100403.06;108473;1270;22036;-60
2023/05/26 05:38:11;;;;;;;6.20;4.00;;;;;;;27.07;66.68;100397.36;108589;1270;21990;-61
2023/05/26 05:40:36;;;;;;;4.80;3.70;;;;;;;27.28;66.12;100398.19;108581;1276;21981;-60
2023/05/26 05:43:02;;;;;;;5.60;3.70;;;;;;;27.49;66.43;100395.60;108509;1279;21982;-60
2023/05/26 05:45:28;;;;;;;6.70;4.10;;;;;;;27.73;66.41;100393.25;108400;1274;21977;-60
2023/05/26 05:47:53;;;;;;;5.60;3.90;;;;;;;27.94;65.77;100395.59;108418;1271;22150;-60
2023/05/26 05:50:19;;;;;;;6.70;4.10;;;;;;;28.07;64.19;100394.14;108464;1278;21987;-60
2023/05/26 05:52:45;;;;;;;5.70;3.60;;;;;;;28.11;63.70;100394.74;108480;1276;21985;-61
2023/05/26 05:55:11;;;;;;;7.50;4.00;;;;;;;28.06;62.73;100400.88;108521;1270;21982;-60
2023/05/26 05:57:36;;;;;;;7.90;3.70;;;;;;;28.04;63.02;100404.10;108370;1275;21981;-58
2023/05/26 06:00:07;;;;;;;4.90;3.90;;;;;;;28.07;62.53;100403.70;108455;1279;21976;-58
2023/05/26 06:02:34;;;;;;;6.30;3.80;;;;;;;28.04;61.93;100408.79;108430;1277;21988;-59
2023/05/26 06:05:00;;;;;;;8.70;4.10;;;;;;;27.99;61.70;100408.38;108534;1275;21980;-58
2023/05/26 06:07:25;;;;;;;7.40;3.90;;;;;;;27.93;61.49;100407.23;108382;1273;21978;-58
2023/05/26 06:09:51;;;;;;;7.10;3.50;;;;;;;27.87;61.12;100409.02;108424;1270;21985;-59
2023/05/26 06:12:17;;;;;;;5.60;3.90;;;;;;;27.81;61.09;100408.08;108428;1273;21978;-59
2023/05/26 06:14:43;;;;;;;5.80;4.00;;;;;;;27.73;60.82;100407.98;108532;1270;22926;-59
2023/05/26 06:17:08;;;;;;;5.70;4.20;;;;;;;27.69;61.16;100412.13;108566;1277;21984;-59
2023/05/26 06:19:35;;;;;;;5.40;4.20;;;;;;;27.67;61.14;100412.29;108388;1278;22630;-59
2023/05/26 06:22:01;;;;;;;6.50;4.70;;;;;;;27.65;60.60;100411.42;108466;1279;21978;-60
2023/05/26 06:24:27;;;;;;;6.90;3.70;;;;;;;27.58;60.99;100410.39;108453;1270;21985;-59
2023/05/26 06:26:52;;;;;;;6.20;3.90;;;;;;;27.61;61.67;100407.60;108431;1280;21968;-59
2023/05/26 06:29:18;;;;;;;5.90;4.10;;;;;;;27.71;61.62;100401.34;108423;1273;22154;-59
2023/05/26 06:31:45;;;;;;;6.20;4.10;;;;;;;27.84;61.23;100403.67;108443;1280;21991;-59
2023/05/26 06:34:11;;;;;;;5.20;4.40;;;;;;;27.92;60.86;100409.15;108478;1280;22024;-59
2023/05/26 06:36:36;;;;;;;6.30;4.10;;;;;;;27.99;60.85;100406.90;108453;1279;21980;-60
2023/05/26 06:39:02;;;;;;;6.60;4.60;;;;;;;28.08;60.96;100406.85;108432;1279;21978;-59
2023/05/26 06:41:28;;;;;;;7.90;4.20;;;;;;;28.11;60.63;100404.05;108408;1279;21979;-59
2023/05/26 06:43:54;;;;;;;8.60;4.40;;;;;;;28.10;60.27;100404.16;108439;1279;21983;-59
2023/05/26 06:46:20;;;;;;;8.10;4.30;;;;;;;28.14;61.02;100403.19;108397;1280;21998;-59
2023/05/26 06:48:45;;;;;;;7.90;3.80;;;;;;;28.28;61.56;100401.38;108447;1274;21978;-59
2023/05/26 06:51:11;;;;;;;5.60;4.40;;;;;;;28.41;61.61;100401.86;108425;1277;23045;-59
2023/05/26 06:53:38;;;;;;;6.20;4.00;;;;;;;28.55;61.64;100399.61;108366;1271;22018;-59
2023/05/26 06:56:05;;;;;;;6.80;4.50;;;;;;;28.72;61.84;100404.80;108449;1279;22049;-59
2023/05/26 06:58:32;;;;;;;5.70;4.10;;;;;;;28.96;62.55;100406.66;108575;1277;22940;-59
2023/05/26 07:00:59;;;;;;;6.20;4.10;;;;;;;29.33;63.42;100406.64;108382;1277;21980;-58
2023/05/26 07:03:26;;;;;;;7.40;3.80;;;;;;;29.72;63.39;100403.02;108435;1279;21992;-59
2023/05/26 07:05:51;;;;;;;6.00;4.00;;;;;;;30.14;63.03;100399.02;108473;1279;21978;-59
2023/05/26 07:08:17;;;;;;;6.40;4.60;;;;;;;30.60;63.75;100398.06;108438;1273;21980;-59
2023/05/26 07:10:43;;;;;;;5.90;3.90;;;;;;;31.06;62.44;100395.06;108408;1279;21987;-59
2023/05/26 07:13:08;;;;;;;7.20;4.10;;;;;;;31.46;61.29;100395.29;108449;1277;21980;-59
2023/05/26 07:15:34;;;;;;;11.10;4.80;;;;;;;31.93;62.57;100396.02;108429;1279;21982;-60
2023/05/26 07:18:00;;;;;;;8.80;3.90;;;;;;;32.37;61.23;100395.63;108499;1270;22005;-59
2023/05/26 07:20:25;;;;;;;6.80;3.70;;;;;;;32.74;59.62;100393.85;108450;1277;21987;-61
2023/05/26 07:22:51;;;;;;;8.80;3.50;;;;;;;33.05;58.01;100396.06;108395;1277;21977;-60
2023/05/26 07:25:17;;;;;;;6.90;3.90;;;;;;;33.20;56.31;100391.50;108918;1279;21998;-59
2023/05/26 07:27:43;;;;;;;5.40;3.50;;;;;;;33.21;55.24;100390.27;108454;1271;22107;-60
2023/05/26 07:30:10;;;;;;;6.90;4.00;;;;;;;33.15;53.61;100400.61;108447;1274;21986;-60
2023/05/26 07:32:36;;;;;;;6.10;4.30;;;;;;;32.93;51.86;100404.98;108524;1278;21985;-59
2023/05/26 07:35:02;;;;;;;7.00;4.10;;;;;;;32.62;52.07;100408.91;108552;1277;21981;-60
2023/05/26 07:37:28;;;;;;;8.10;3.50;;;;;;;32.38;52.64;100412.11;108555;1278;21979;-59
2023/05/26 07:39:55;;;;;;;6.10;4.40;;;;;;;32.24;53.30;100413.06;108469;1275;21992;-60
2023/05/26 07:42:21;;;;;;;6.30;3.70;;;;;;;32.15;52.45;100412.42;108476;1279;21977;-59
2023/05/26 07:44:47;;;;;;;6.10;3.80;;;;;;;31.95;51.92;100413.20;108458;1279;21982;-60
2023/05/26 07:47:13;;;;;;;9.10;4.20;;;;;;;31.72;52.32;100415.70;108430;1275;21981;-60
2023/05/26 07:49:38;;;;;;;8.70;5.00;;;;;;;31.51;52.90;100413.29;109252;1279;21909;-61
2023/05/26 07:52:04;;;;;;;6.60;4.60;;;;;;;31.39;52.99;100410.30;108600;1277;23041;-61
2023/05/26 07:54:30;;;;;;;7.90;4.30;;;;;;;31.28;53.46;100412.52;108341;1273;22021;-60
2023/05/26 07:56:55;;;;;;;8.20;5.20;;;;;;;31.22;53.95;100410.77;108334;1274;21977;-60
2023/05/26 07:59:21;;;;;;;8.00;5.00;;;;;;;31.31;54.94;100405.64;108388;1276;21997;-59
2023/05/26 08:01:47;;;;;;;8.60;4.50;;;;;;;31.56;55.03;100402.66;108442;1279;21978;-60
2023/05/26 08:04:12;;;;;;;9.50;4.90;;;;;;;31.91;55.51;100398.96;108604;1274;23337;-60
2023/05/26 08:06:38;;;;;;;6.30;3.80;;;;;;;32.38;54.73;100397.71;108457;1276;21999;-60
2023/05/26 08:09:06;;;;;;;6.20;4.10;;;;;;;32.73;53.33;100398.81;108523;1279;21980;-62
2023/05/26 08:11:32;;;;;;;4.80;3.80;;;;;;;32.99;52.29;100400.34;108431;1279;23841;-61
2023/05/26 08:13:58;;;;;;;7.70;4.30;;;;;;;33.17;52.47;100400.41;108390;1274;21990;-61
2023/05/26 08:16:24;;;;;;;5.80;3.80;;;;;;;33.29;51.71;100396.36;108426;1279;21985;-61
2023/05/26 08:18:50;;;;;;;5.40;3.70;;;;;;;33.33;51.29;100393.88;108527;1271;21981;-60
2023/05/26 08:21:16;;;;;;;5.40;4.10;;;;;;;33.27;50.60;100394.69;108826;1270;21998;-59
2023/05/26 08:23:42;;;;;;;6.90;4.70;;;;;;;33.06;49.68;100399.13;108436;1270;21983;-59
2023/05/26 08:26:08;;;;;;;7.60;4.40;;;;;;;32.87;50.02;100392.65;108413;1274;21982;-60
2023/05/26 08:28:34;;;;;;;7.20;4.40;;;;;;;32.70;48.86;100390.22;108393;1266;22748;-60
2023/05/26 08:31:00;;;;;;;5.80;4.30;;;;;;;32.49;49.31;100386.41;108428;1279;21983;-61
2023/05/26 08:33:26;;;;;;;5.80;4.30;;;;;;;32.44;50.52;100388.09;108424;1279;24296;-60
2023/05/26 08:35:52;;;;;;;6.70;3.70;;;;;;;32.50;50.15;100386.16;108407;1274;21989;-60
2023/05/26 08:38:17;;;;;;;7.80;4.10;;;;;;;32.70;50.41;100385.58;108467;1277;21983;-61
2023/05/26 08:40:43;;;;;;;7.80;4.20;;;;;;;32.96;50.96;100384.00;108392;1273;21981;-60
2023/05/26 08:43:09;;;;;;;7.00;3.90;;;;;;;33.23;51.21;100377.56;108448;1276;22023;-60
2023/05/26 08:45:36;;;;;;;6.30;4.00;;;;;;;33.52;49.58;100380.80;108486;1279;21977;-61
2023/05/26 08:48:02;;;;;;;8.40;4.60;;;;;;;33.77;49.79;100379.33;108593;1271;22409;-60
2023/05/26 08:50:29;;;;;;;8.50;5.10;;;;;;;33.90;49.13;100376.84;108489;1279;21992;-60
2023/05/26 08:52:59;;;;;;;9.10;5.00;;;;;;;34.07;49.87;100374.15;108540;1279;21977;-59
2023/05/26 08:55:25;;;;;;;6.60;4.10;;;;;;;34.35;48.93;100373.27;108527;1271;22063;-61
2023/05/26 08:57:50;;;;;;;5.60;3.80;;;;;;;34.45;47.44;100368.63;108600;1270;21980;-59
2023/05/26 09:00:17;;;;;;;8.60;4.00;;;;;;;34.33;47.22;100368.25;108420;1280;21988;-59
2023/05/26 09:02:43;;;;;;;14.60;4.70;;;;;;;34.27;47.97;100367.58;108460;1274;21978;-61
2023/05/26 09:05:08;;;;;;;8.40;3.50;;;;;;;34.32;48.46;100363.05;108513;1273;21989;-60
2023/05/26 09:07:35;;;;;;;8.30;3.10;;;;;;;34.32;47.35;100358.03;108445;1279;22153;-59
2023/05/26 09:10:02;;;;;;;9.20;3.40;;;;;;;34.25;46.86;100360.88;108476;1270;22516;-60
2023/05/26 09:12:35;;;;;;;13.20;4.50;;;;;;;34.09;46.21;100361.92;108461;1278;21981;-60
2023/05/26 09:15:00;;;;;;;6.10;3.30;;;;;;;33.86;46.18;100359.03;108509;1279;22262;-60
2023/05/26 09:17:26;;;;;;;5.50;3.70;;;;;;;33.60;46.20;100360.79;108451;1277;21995;-60
2023/05/26 09:19:52;;;;;;;6.80;3.70;;;;;;;33.34;45.99;100361.26;108441;1273;21980;-60
2023/05/26 09:22:22;;;;;;;5.50;3.60;;;;;;;33.08;46.38;100359.16;108553;1278;21985;-61
2023/05/26 09:24:48;;;;;;;5.40;3.60;;;;;;;32.85;46.53;100357.99;108449;1274;21978;-60
2023/05/26 09:27:18;;;;;;;5.30;3.30;;;;;;;32.61;46.41;100362.35;108450;1279;22839;-60
2023/05/26 09:30:04;;;;;;;5.90;3.90;;;;;;;32.38;46.64;100363.62;108429;1279;21993;-60
2023/05/26 09:32:32;;;;;;;4.70;3.00;;;;;;;32.18;46.94;100360.42;108520;1279;21979;-61
2023/05/26 09:35:01;;;;;;;5.60;3.40;;;;;;;32.03;47.26;100355.95;108480;1279;21980;-60
2023/05/26 09:37:30;;;;;;;4.60;2.80;;;;;;;31.93;47.44;100354.64;108445;1270;21985;-61
2023/05/26 09:40:10;;;;;;;5.20;3.40;;;;;;;31.86;47.56;100356.32;108445;1274;21981;-60
2023/05/26 09:42:37;;;;;;;;;;;;;;;31.78;47.68;100359.66;108545;1277;21960;-59
2023/05/26 09:45:03;;;;;;;4.30;2.90;;;;;;;31.75;48.09;100358.66;108562;1277;21968;-60
2023/05/26 09:47:33;;;;;;;6.30;3.20;;;;;;;31.77;48.34;100358.16;108449;1274;23074;-60
2023/05/26 09:50:06;;;;;;;6.50;3.40;;;;;;;31.80;48.41;100355.69;108742;1279;23768;-60
2023/05/26 09:52:33;;;;;;;5.60;3.30;;;;;;;31.82;48.25;100354.52;108608;1279;23763;-60
2023/05/26 09:54:58;;;;;;;9.20;3.40;;;;;;;31.89;48.98;100348.91;108515;1274;21978;-59
2023/05/26 09:57:25;;;;;;;5.60;2.80;;;;;;;32.08;49.73;100350.95;108421;1279;21986;-60
2023/05/26 09:59:51;;;;;;;8.90;3.10;;;;;;;32.37;51.02;100346.51;108288;1279;138793;-60
2023/05/26 10:02:20;;;;;;;3.80;2.40;;;;;;;32.65;51.03;100344.97;108420;1279;23672;-60
2023/05/26 10:04:47;;;;;;;4.00;2.80;;;;;;;32.82;49.65;100343.41;108480;1279;22211;-62
2023/05/26 10:07:15;;;;;;;5.50;2.20;;;;;;;32.81;48.61;100344.22;108503;1273;21985;-60
2023/05/26 10:09:40;;;;;;;4.70;2.50;;;;;;;32.75;48.36;100344.31;108519;1267;21991;-61
2023/05/26 10:12:06;;;;;;;3.60;2.60;;;;;;;32.70;48.31;100338.14;108437;1279;21983;-61
2023/05/26 10:14:35;;;;;;;4.30;2.40;;;;;;;32.65;48.42;100337.92;108484;1270;21987;-60
2023/05/26 10:17:03;;;;;;;5.60;2.10;;;;;;;32.62;48.47;100333.34;108505;1279;21955;-60
2023/05/26 10:19:29;;;;;;;3.00;2.40;;;;;;;32.58;48.40;100329.95;108455;1279;22031;-60
2023/05/26 10:21:57;;;;;;;3.70;2.30;;;;;;;32.53;48.39;100325.95;108476;1277;21992;-60
2023/05/26 10:24:31;;;;;;;4.90;2.40;;;;;;;32.50;48.43;100323.73;108538;1279;23606;-60
2023/05/26 10:27:12;;;;;;;4.10;2.70;;;;;;;32.48;48.30;100320.82;108505;1276;21979;-60
2023/05/26 10:30:08;;;;;;;5.70;2.50;;;;;;;32.49;48.22;100317.83;108519;1273;21988;-60
2023/05/26 10:32:47;;;;;;;8.70;2.90;;;;;;;32.53;48.30;100320.29;108397;1277;23715;-60
2023/05/26 10:35:29;;;;;;;5.10;2.90;;;;;;;32.59;48.19;100322.23;108508;1274;21993;-60
2023/05/26 10:38:01;;;;;;;5.40;3.10;;;;;;;32.68;48.37;100322.54;108480;1278;21987;-60
2023/05/26 10:40:32;;;;;;;8.00;3.10;;;;;;;32.83;48.47;100322.98;108485;1274;22434;-62
2023/05/26 10:43:22;;;;;;;4.80;3.20;;;;;;;33.03;48.88;100325.35;108465;1277;22018;-60
2023/05/26 10:45:57;;;;;;;6.60;3.10;;;;;;;33.30;48.68;100334.22;108505;1279;21979;-60
2023/05/26 10:48:32;;;;;;;4.80;2.80;;;;;;;33.60;48.71;100337.89;108420;1279;21978;-61
2023/05/26 10:50:58;;;;;;;5.20;2.90;;;;;;;33.96;48.76;100335.59;108398;1273;21989;-60
2023/05/26 10:53:25;;;;;;;5.90;3.10;;;;;;;34.32;48.07;100336.06;108517;1279;21981;-61
2023/05/26 10:55:55;;;;;;;4.90;3.00;;;;;;;34.59;46.23;100336.08;108496;1271;22437;-61
2023/05/26 10:58:27;;;;;;;5.50;2.90;;;;;;;34.81;46.30;100336.14;108488;1274;21977;-60
2023/05/26 11:01:00;;;;;;;8.00;3.00;;;;;;;34.97;45.55;100356.16;108428;1274;22040;-60
2023/05/26 11:03:43;;;;;;;8.80;2.90;;;;;;;34.65;42.91;100374.27;108475;1279;22324;-60
2023/05/26 11:06:12;;;;;;;15.00;3.80;;;;;;;33.69;46.53;100384.77;108495;1279;21982;-60
2023/05/26 11:08:43;;;;;;;13.40;3.90;;;;;;;32.40;44.70;100394.60;108563;1274;22034;-60
2023/05/26 11:11:10;;;;;;;14.40;4.20;;;;;;;31.20;44.81;100397.46;108478;1274;21986;-60
2023/05/26 11:13:46;;;;;;;8.20;3.20;;;;;;;30.22;45.93;100398.36;108481;1279;21983;-60
2023/05/26 11:16:34;;;;;;;5.30;2.30;;;;;;;29.17;46.60;100392.27;109045;1267;23055;-62
2023/05/26 11:19:05;;;;;;;8.60;2.30;;;;;;;28.27;47.85;100389.79;108487;1269;21980;-62